Carnival Spirit — 9HA3097 — position and weather

sailwx.info

Track history (hours):
 
Tides and Currents Weather Stations Pressure Air Temp Water Temp Dewpoint Dewpoint Depression Visibility Wind Speed Wind Dir Waves Ship Positions

Carnival Spirit

Last reported at 2018-Apr-24 07:58 UTC. Time now 2018-Apr-25 02:39 UTC.
Position S 22°23' E 166°42'.

Length 293 m; draft 8.2 m.

Type: Ship. MMSI: 229136000.

Date/timePositionNaut miles runAvg speedWind from/ knotsBaromVisibWave heightAir tempDewpointWater temp
2018-Apr-24 07:58S 22°23' E 166°42'715.9
2018-Apr-24 07:31S 22°22' E 166°35'815.8
2018-Apr-24 07:00S 22°20' E 166°27'510.9
2018-Apr-24 06:30S 22°15' E 166°24'2 4.8
2018-Apr-24 06:00S 22°16' E 166°26'0 0.0
2018-Apr-24 05:30S 22°16' E 166°26'0 0.0
2018-Apr-24 05:00S 22°16' E 166°26'0 0.0
2018-Apr-24 04:30S 22°16' E 166°26'0 0.0
2018-Apr-24 04:00S 22°16' E 166°26'0 0.0
2018-Apr-24 03:30S 22°16' E 166°26'0 0.0
2018-Apr-24 03:00S 22°16' E 166°26'0 0.0
2018-Apr-24 02:30S 22°16' E 166°26'0 0.0
2018-Apr-24 02:00S 22°16' E 166°26'0 0.0
2018-Apr-24 01:30S 22°16' E 166°26'0 0.0
2018-Apr-24 01:00S 22°16' E 166°26'0 0.0
2018-Apr-24 00:30S 22°16' E 166°26'0 0.0
2018-Apr-24 00:00S 22°16' E 166°26'0 0.0
2018-Apr-23 23:30S 22°16' E 166°26'0 0.0
2018-Apr-23 23:00S 22°16' E 166°26'0 0.0
2018-Apr-23 22:30S 22°16' E 166°26'0 0.0
2018-Apr-23 22:00S 22°16' E 166°26'0 0.0
2018-Apr-23 21:30S 22°16' E 166°26'0 0.0
2018-Apr-23 21:00S 22°16' E 166°26'0 0.0
2018-Apr-23 20:30S 22°16' E 166°26'1 1.8
2018-Apr-23 20:00S 22°15' E 166°25'611.2
2018-Apr-23 19:30S 22°17' E 166°20'815.2
2018-Apr-23 19:00S 22°23' E 166°14'612.1
2018-Apr-23 18:31S 22°27' E 166°09'815.5
2018-Apr-23 18:00S 22°32' E 166°03'40418.4
2018-Apr-22 20:00S 26°54' E 160°24'41017.8 090 / 241015.010.8 23.020.125.0
2018-Apr-21 21:00S 31°24' E 154°30'11017.5 120 / 241020.010.8 20.015.325.0
2018-Apr-21 14:42S 32°41' E 152°57'316.5
2018-Apr-21 14:31S 32°43' E 152°54'816.2
2018-Apr-21 14:00S 32°49' E 152°47'815.7
2018-Apr-21 13:30S 32°55' E 152°41'815.9
2018-Apr-21 13:00S 32°60' E 152°34'918.5
2018-Apr-21 12:31S 33°06' E 152°25'1019.0
2018-Apr-21 12:00S 33°12' E 152°16'1218.9
2018-Apr-21 11:21S 33°20' E 152°05'2218.4
2018-Apr-21 10:08S 33°34' E 151°45'217.9
2018-Apr-21 10:00S 33°36' E 151°42'918.0
2018-Apr-21 09:31S 33°42' E 151°34'917.8
2018-Apr-21 09:01S 33°48' E 151°26'713.7
2018-Apr-21 08:30S 33°50' E 151°19'5 8.9
2018-Apr-21 07:59S 33°51' E 151°13'1 0.1
2018-Apr-20 20:22S 33°52' E 151°13'1 2.4
2018-Apr-20 19:58S 33°51' E 151°14'4 8.6
2018-Apr-20 19:30S 33°50' E 151°18'510.8
2018-Apr-20 19:00S 33°48' E 151°24'612.7
2018-Apr-20 18:30S 33°44' E 151°30'713.7
2018-Apr-20 18:01S 33°39' E 151°36'713.9
2018-Apr-20 17:30S 33°34' E 151°42'714.1
2018-Apr-20 17:00S 33°29' E 151°48'1014.9
2018-Apr-20 16:22S 33°22' E 151°56'615.4
2018-Apr-20 16:00S 33°19' E 152°01'815.3
2018-Apr-20 15:30S 33°13' E 152°07'715.1
2018-Apr-20 15:01S 33°08' E 152°14'815.2
2018-Apr-20 14:31S 33°03' E 152°20'815.2
2018-Apr-20 14:00S 32°57' E 152°27'815.7
2018-Apr-20 13:31S 32°52' E 152°33'918.3
2018-Apr-20 13:01S 32°46' E 152°41'918.5
2018-Apr-20 12:31S 32°40' E 152°50'29017.6
2018-Apr-19 20:00S 29°30' E 157°06'43718.2 060 / 131019.710.8 22.019.025.0
2018-Apr-18 20:00S 25°18' E 163°48'   120 / 151018.710.8 23.015.225.0
2018-Apr-16 07:52S 22°23' E 166°40'615.8
2018-Apr-16 07:30S 22°22' E 166°34'815.7
2018-Apr-16 07:01S 22°19' E 166°26'510.3
2018-Apr-16 06:30S 22°15' E 166°24'2 3.9
2018-Apr-16 05:56S 22°16' E 166°26'0 0.0
2018-Apr-16 05:29S 22°16' E 166°26'0 0.0
2018-Apr-16 04:59S 22°16' E 166°26'0 0.0
2018-Apr-16 04:29S 22°16' E 166°26'0 0.0
2018-Apr-16 03:56S 22°16' E 166°26'0 0.0
2018-Apr-16 03:29S 22°16' E 166°26'0 0.0
2018-Apr-16 02:56S 22°16' E 166°26'0 0.0
2018-Apr-16 02:29S 22°16' E 166°26'0 0.0
2018-Apr-16 01:59S 22°16' E 166°26'0 0.0
2018-Apr-16 01:29S 22°16' E 166°26'0 0.0
2018-Apr-16 00:56S 22°16' E 166°26'0 0.0
2018-Apr-16 00:29S 22°16' E 166°26'0 0.0
2018-Apr-15 23:59S 22°16' E 166°26'0 0.0
2018-Apr-15 23:29S 22°16' E 166°26'0 0.0
2018-Apr-15 23:01S 22°16' E 166°26'0 0.0
2018-Apr-15 22:30S 22°16' E 166°26'0 0.0
2018-Apr-15 22:00S 22°16' E 166°26'0 0.0
2018-Apr-15 21:30S 22°16' E 166°26'0 0.0
2018-Apr-15 21:00S 22°16' E 166°26'0 0.1
2018-Apr-15 20:30S 22°16' E 166°26'1 1.9
2018-Apr-15 20:00S 22°15' E 166°25'612.2
2018-Apr-15 19:31S 22°18' E 166°19'815.0
2018-Apr-15 19:00S 22°23' E 166°13'815.6
2018-Apr-15 18:30S 22°28' E 166°07'918.3
2018-Apr-15 18:00S 22°34' E 165°60'  
Track history (hours):
 
Tides and Currents Weather Stations Pressure Air Temp Water Temp Dewpoint Dewpoint Depression Visibility Wind Speed Wind Dir Waves Ship Positions

Carnival Spirit

Last reported at 2018-Apr-24 07:58 UTC. Time now 2018-Apr-25 02:39 UTC.
Position S 22°23' E 166°42'.

Length 293 m; draft 8.2 m.

Type: Ship. MMSI: 229136000.

Date/timePositionNaut miles runAvg speedWind from/ knotsBaromVisibWave heightAir tempDewpointWater temp
2018-Apr-24 07:58S 22°23' E 166°42'715.9
2018-Apr-24 07:31S 22°22' E 166°35'815.8
2018-Apr-24 07:00S 22°20' E 166°27'510.9
2018-Apr-24 06:30S 22°15' E 166°24'2 4.8
2018-Apr-24 06:00S 22°16' E 166°26'0 0.0
2018-Apr-24 05:30S 22°16' E 166°26'0 0.0
2018-Apr-24 05:00S 22°16' E 166°26'0 0.0
2018-Apr-24 04:30S 22°16' E 166°26'0 0.0
2018-Apr-24 04:00S 22°16' E 166°26'0 0.0
2018-Apr-24 03:30S 22°16' E 166°26'0 0.0
2018-Apr-24 03:00S 22°16' E 166°26'0 0.0
2018-Apr-24 02:30S 22°16' E 166°26'0 0.0
2018-Apr-24 02:00S 22°16' E 166°26'0 0.0
2018-Apr-24 01:30S 22°16' E 166°26'0 0.0
2018-Apr-24 01:00S 22°16' E 166°26'0 0.0
2018-Apr-24 00:30S 22°16' E 166°26'0 0.0
2018-Apr-24 00:00S 22°16' E 166°26'0 0.0
2018-Apr-23 23:30S 22°16' E 166°26'0 0.0
2018-Apr-23 23:00S 22°16' E 166°26'0 0.0
2018-Apr-23 22:30S 22°16' E 166°26'0 0.0
2018-Apr-23 22:00S 22°16' E 166°26'0 0.0
2018-Apr-23 21:30S 22°16' E 166°26'0 0.0
2018-Apr-23 21:00S 22°16' E 166°26'0 0.0
2018-Apr-23 20:30S 22°16' E 166°26'1 1.8
2018-Apr-23 20:00S 22°15' E 166°25'611.2
2018-Apr-23 19:30S 22°17' E 166°20'815.2
2018-Apr-23 19:00S 22°23' E 166°14'612.1
2018-Apr-23 18:31S 22°27' E 166°09'815.5
2018-Apr-23 18:00S 22°32' E 166°03'40418.4
2018-Apr-22 20:00S 26°54' E 160°24'41017.8 090 / 241015.010.8 23.020.125.0
2018-Apr-21 21:00S 31°24' E 154°30'11017.5 120 / 241020.010.8 20.015.325.0
2018-Apr-21 14:42S 32°41' E 152°57'316.5
2018-Apr-21 14:31S 32°43' E 152°54'816.2
2018-Apr-21 14:00S 32°49' E 152°47'815.7
2018-Apr-21 13:30S 32°55' E 152°41'815.9
2018-Apr-21 13:00S 32°60' E 152°34'918.5
2018-Apr-21 12:31S 33°06' E 152°25'1019.0
2018-Apr-21 12:00S 33°12' E 152°16'1218.9
2018-Apr-21 11:21S 33°20' E 152°05'2218.4
2018-Apr-21 10:08S 33°34' E 151°45'217.9
2018-Apr-21 10:00S 33°36' E 151°42'918.0
2018-Apr-21 09:31S 33°42' E 151°34'917.8
2018-Apr-21 09:01S 33°48' E 151°26'713.7
2018-Apr-21 08:30S 33°50' E 151°19'5 8.9
2018-Apr-21 07:59S 33°51' E 151°13'1 0.1
2018-Apr-20 20:22S 33°52' E 151°13'1 2.4
2018-Apr-20 19:58S 33°51' E 151°14'4 8.6
2018-Apr-20 19:30S 33°50' E 151°18'510.8
2018-Apr-20 19:00S 33°48' E 151°24'612.7
2018-Apr-20 18:30S 33°44' E 151°30'713.7
2018-Apr-20 18:01S 33°39' E 151°36'713.9
2018-Apr-20 17:30S 33°34' E 151°42'714.1
2018-Apr-20 17:00S 33°29' E 151°48'1014.9
2018-Apr-20 16:22S 33°22' E 151°56'615.4
2018-Apr-20 16:00S 33°19' E 152°01'815.3
2018-Apr-20 15:30S 33°13' E 152°07'715.1
2018-Apr-20 15:01S 33°08' E 152°14'815.2
2018-Apr-20 14:31S 33°03' E 152°20'815.2
2018-Apr-20 14:00S 32°57' E 152°27'815.7
2018-Apr-20 13:31S 32°52' E 152°33'918.3
2018-Apr-20 13:01S 32°46' E 152°41'918.5
2018-Apr-20 12:31S 32°40' E 152°50'29017.6
2018-Apr-19 20:00S 29°30' E 157°06'43718.2 060 / 131019.710.8 22.019.025.0
2018-Apr-18 20:00S 25°18' E 163°48'   120 / 151018.710.8 23.015.225.0
2018-Apr-16 07:52S 22°23' E 166°40'615.8
2018-Apr-16 07:30S 22°22' E 166°34'815.7
2018-Apr-16 07:01S 22°19' E 166°26'510.3
2018-Apr-16 06:30S 22°15' E 166°24'2 3.9
2018-Apr-16 05:56S 22°16' E 166°26'0 0.0
2018-Apr-16 05:29S 22°16' E 166°26'0 0.0
2018-Apr-16 04:59S 22°16' E 166°26'0 0.0
2018-Apr-16 04:29S 22°16' E 166°26'0 0.0
2018-Apr-16 03:56S 22°16' E 166°26'0 0.0
2018-Apr-16 03:29S 22°16' E 166°26'0 0.0
2018-Apr-16 02:56S 22°16' E 166°26'0 0.0
2018-Apr-16 02:29S 22°16' E 166°26'0 0.0
2018-Apr-16 01:59S 22°16' E 166°26'0 0.0
2018-Apr-16 01:29S 22°16' E 166°26'0 0.0
2018-Apr-16 00:56S 22°16' E 166°26'0 0.0
2018-Apr-16 00:29S 22°16' E 166°26'0 0.0
2018-Apr-15 23:59S 22°16' E 166°26'0 0.0
2018-Apr-15 23:29S 22°16' E 166°26'0 0.0
2018-Apr-15 23:01S 22°16' E 166°26'0 0.0
2018-Apr-15 22:30S 22°16' E 166°26'0 0.0
2018-Apr-15 22:00S 22°16' E 166°26'0 0.0
2018-Apr-15 21:30S 22°16' E 166°26'0 0.0
2018-Apr-15 21:00S 22°16' E 166°26'0 0.1
2018-Apr-15 20:30S 22°16' E 166°26'1 1.9
2018-Apr-15 20:00S 22°15' E 166°25'612.2
2018-Apr-15 19:31S 22°18' E 166°19'815.0
2018-Apr-15 19:00S 22°23' E 166°13'815.6
2018-Apr-15 18:30S 22°28' E 166°07'918.3
2018-Apr-15 18:00S 22°34' E 165°60'  

Dump ship's entire track history